sensor_id;sensor_type;location;lat;lon;timestamp;temperature;humidity
70366;DHT22;57787;48.216;12.396;2023-04-16T00:00:38;7.00;87.90
70366;DHT22;57787;48.216;12.396;2023-04-16T00:03:05;7.00;88.20
70366;DHT22;57787;48.216;12.396;2023-04-16T00:05:33;7.00;88.20
70366;DHT22;57787;48.216;12.396;2023-04-16T00:08:00;7.00;88.20
70366;DHT22;57787;48.216;12.396;2023-04-16T00:10:27;7.00;88.30
70366;DHT22;57787;48.216;12.396;2023-04-16T00:12:55;7.00;88.20
70366;DHT22;57787;48.216;12.396;2023-04-16T00:15:22;7.00;88.20
70366;DHT22;57787;48.216;12.396;2023-04-16T00:17:49;7.00;88.30
70366;DHT22;57787;48.216;12.396;2023-04-16T00:20:16;7.00;88.30
70366;DHT22;57787;48.216;12.396;2023-04-16T00:22:43;7.00;88.40
70366;DHT22;57787;48.216;12.396;2023-04-16T00:25:11;7.00;88.20
70366;DHT22;57787;48.216;12.396;2023-04-16T00:27:38;7.00;88.20
70366;DHT22;57787;48.216;12.396;2023-04-16T00:30:05;7.00;88.20
70366;DHT22;57787;48.216;12.396;2023-04-16T00:32:33;7.00;88.20
70366;DHT22;57787;48.216;12.396;2023-04-16T00:35:01;7.00;88.30
70366;DHT22;57787;48.216;12.396;2023-04-16T00:37:28;7.00;88.30
70366;DHT22;57787;48.216;12.396;2023-04-16T00:39:55;7.00;88.20
70366;DHT22;57787;48.216;12.396;2023-04-16T00:42:24;7.00;88.00
70366;DHT22;57787;48.216;12.396;2023-04-16T00:44:51;6.90;87.90
70366;DHT22;57787;48.216;12.396;2023-04-16T00:47:18;7.00;87.90
70366;DHT22;57787;48.216;12.396;2023-04-16T00:49:45;7.00;87.90
70366;DHT22;57787;48.216;12.396;2023-04-16T00:52:12;6.90;87.80
70366;DHT22;57787;48.216;12.396;2023-04-16T00:54:40;6.90;87.70
70366;DHT22;57787;48.216;12.396;2023-04-16T00:57:07;6.90;87.50
70366;DHT22;57787;48.216;12.396;2023-04-16T00:59:34;6.90;87.50
70366;DHT22;57787;48.216;12.396;2023-04-16T01:02:01;6.90;87.40
70366;DHT22;57787;48.216;12.396;2023-04-16T01:04:31;6.90;87.30
70366;DHT22;57787;48.216;12.396;2023-04-16T01:06:59;6.90;87.60
70366;DHT22;57787;48.216;12.396;2023-04-16T01:09:26;6.90;87.30
70366;DHT22;57787;48.216;12.396;2023-04-16T01:11:52;6.90;87.30
70366;DHT22;57787;48.216;12.396;2023-04-16T01:14:19;6.80;87.30
70366;DHT22;57787;48.216;12.396;2023-04-16T01:16:46;6.80;87.10
70366;DHT22;57787;48.216;12.396;2023-04-16T01:19:12;6.80;87.20
70366;DHT22;57787;48.216;12.396;2023-04-16T01:21:39;6.80;87.20
70366;DHT22;57787;48.216;12.396;2023-04-16T01:24:06;6.80;87.20
70366;DHT22;57787;48.216;12.396;2023-04-16T01:26:33;6.80;87.20
70366;DHT22;57787;48.216;12.396;2023-04-16T01:29:00;6.80;87.20
70366;DHT22;57787;48.216;12.396;2023-04-16T01:31:27;6.80;87.20
70366;DHT22;57787;48.216;12.396;2023-04-16T01:33:53;6.80;87.10
70366;DHT22;57787;48.216;12.396;2023-04-16T01:36:20;6.70;87.00
70366;DHT22;57787;48.216;12.396;2023-04-16T01:38:47;6.80;87.10
70366;DHT22;57787;48.216;12.396;2023-04-16T01:41:14;6.70;87.10
70366;DHT22;57787;48.216;12.396;2023-04-16T01:43:42;6.70;86.90
70366;DHT22;57787;48.216;12.396;2023-04-16T01:46:11;6.70;86.60
70366;DHT22;57787;48.216;12.396;2023-04-16T01:48:38;6.70;86.70
70366;DHT22;57787;48.216;12.396;2023-04-16T01:51:05;6.70;86.90
70366;DHT22;57787;48.216;12.396;2023-04-16T01:53:32;6.70;87.00
70366;DHT22;57787;48.216;12.396;2023-04-16T01:56:02;6.70;87.10
70366;DHT22;57787;48.216;12.396;2023-04-16T01:58:29;6.70;87.00
70366;DHT22;57787;48.216;12.396;2023-04-16T02:00:56;6.70;86.90
70366;DHT22;57787;48.216;12.396;2023-04-16T02:03:22;6.70;86.90
70366;DHT22;57787;48.216;12.396;2023-04-16T02:05:50;6.60;86.90
70366;DHT22;57787;48.216;12.396;2023-04-16T02:08:17;6.60;87.10
70366;DHT22;57787;48.216;12.396;2023-04-16T02:10:44;6.60;87.00
70366;DHT22;57787;48.216;12.396;2023-04-16T02:13:12;6.60;87.00
70366;DHT22;57787;48.216;12.396;2023-04-16T02:15:39;6.60;87.00
70366;DHT22;57787;48.216;12.396;2023-04-16T02:18:12;6.60;87.00
70366;DHT22;57787;48.216;12.396;2023-04-16T02:20:42;6.60;86.90
70366;DHT22;57787;48.216;12.396;2023-04-16T02:23:12;6.60;86.70
70366;DHT22;57787;48.216;12.396;2023-04-16T02:25:41;6.50;86.70
70366;DHT22;57787;48.216;12.396;2023-04-16T02:28:09;6.60;86.90
70366;DHT22;57787;48.216;12.396;2023-04-16T02:30:36;6.60;87.00
70366;DHT22;57787;48.216;12.396;2023-04-16T02:33:03;6.50;87.00
70366;DHT22;57787;48.216;12.396;2023-04-16T02:35:33;6.50;86.80
70366;DHT22;57787;48.216;12.396;2023-04-16T02:38:01;6.50;86.90
70366;DHT22;57787;48.216;12.396;2023-04-16T02:40:28;6.50;86.70
70366;DHT22;57787;48.216;12.396;2023-04-16T02:42:55;6.50;86.60
70366;DHT22;57787;48.216;12.396;2023-04-16T02:45:23;6.50;86.60
70366;DHT22;57787;48.216;12.396;2023-04-16T02:47:49;6.40;86.60
70366;DHT22;57787;48.216;12.396;2023-04-16T02:50:16;6.50;86.50
70366;DHT22;57787;48.216;12.396;2023-04-16T02:52:43;6.50;86.40
70366;DHT22;57787;48.216;12.396;2023-04-16T02:55:10;6.50;86.50
70366;DHT22;57787;48.216;12.396;2023-04-16T02:57:37;6.50;86.40
70366;DHT22;57787;48.216;12.396;2023-04-16T03:00:04;6.50;86.70
70366;DHT22;57787;48.216;12.396;2023-04-16T03:05:12;6.40;86.80
70366;DHT22;57787;48.216;12.396;2023-04-16T03:07:54;6.40;86.70
70366;DHT22;57787;48.216;12.396;2023-04-16T03:10:22;6.40;86.70
70366;DHT22;57787;48.216;12.396;2023-04-16T03:12:49;6.40;86.70
70366;DHT22;57787;48.216;12.396;2023-04-16T03:15:17;6.40;86.80
70366;DHT22;57787;48.216;12.396;2023-04-16T03:17:44;6.40;86.80
70366;DHT22;57787;48.216;12.396;2023-04-16T03:20:10;6.40;87.00
70366;DHT22;57787;48.216;12.396;2023-04-16T03:22:37;6.40;86.80
70366;DHT22;57787;48.216;12.396;2023-04-16T03:25:05;6.40;87.00
70366;DHT22;57787;48.216;12.396;2023-04-16T03:27:32;6.40;86.90
70366;DHT22;57787;48.216;12.396;2023-04-16T03:29:59;6.40;87.00
70366;DHT22;57787;48.216;12.396;2023-04-16T03:32:27;6.40;87.10
70366;DHT22;57787;48.216;12.396;2023-04-16T03:34:54;6.40;87.00
70366;DHT22;57787;48.216;12.396;2023-04-16T03:37:20;6.40;87.00
70366;DHT22;57787;48.216;12.396;2023-04-16T03:39:48;6.40;87.00
70366;DHT22;57787;48.216;12.396;2023-04-16T03:42:16;6.40;87.10
70366;DHT22;57787;48.216;12.396;2023-04-16T03:44:43;6.50;86.90
70366;DHT22;57787;48.216;12.396;2023-04-16T03:47:12;6.40;87.00
70366;DHT22;57787;48.216;12.396;2023-04-16T03:49:40;6.40;86.90
70366;DHT22;57787;48.216;12.396;2023-04-16T03:52:07;6.40;86.90
70366;DHT22;57787;48.216;12.396;2023-04-16T03:54:34;6.40;87.00
70366;DHT22;57787;48.216;12.396;2023-04-16T03:57:02;6.40;86.80
70366;DHT22;57787;48.216;12.396;2023-04-16T03:59:28;6.40;86.70
70366;DHT22;57787;48.216;12.396;2023-04-16T04:01:55;6.40;86.50
70366;DHT22;57787;48.216;12.396;2023-04-16T04:07:04;6.40;86.20
70366;DHT22;57787;48.216;12.396;2023-04-16T04:09:31;6.30;86.40
70366;DHT22;57787;48.216;12.396;2023-04-16T04:11:59;6.40;86.50
70366;DHT22;57787;48.216;12.396;2023-04-16T04:14:27;6.30;86.20
70366;DHT22;57787;48.216;12.396;2023-04-16T04:16:54;6.40;86.40
70366;DHT22;57787;48.216;12.396;2023-04-16T04:19:21;6.30;86.40
70366;DHT22;57787;48.216;12.396;2023-04-16T04:21:48;6.40;86.30
70366;DHT22;57787;48.216;12.396;2023-04-16T04:24:18;6.40;86.60
70366;DHT22;57787;48.216;12.396;2023-04-16T04:26:45;6.40;86.60
70366;DHT22;57787;48.216;12.396;2023-04-16T04:29:12;6.40;86.60
70366;DHT22;57787;48.216;12.396;2023-04-16T04:31:40;6.40;86.60
70366;DHT22;57787;48.216;12.396;2023-04-16T04:34:07;6.40;86.50
70366;DHT22;57787;48.216;12.396;2023-04-16T04:36:34;6.40;86.70
70366;DHT22;57787;48.216;12.396;2023-04-16T04:39:01;6.40;86.80
70366;DHT22;57787;48.216;12.396;2023-04-16T04:41:29;6.40;86.60
70366;DHT22;57787;48.216;12.396;2023-04-16T04:43:57;6.40;86.40
70366;DHT22;57787;48.216;12.396;2023-04-16T04:46:24;6.40;86.30
70366;DHT22;57787;48.216;12.396;2023-04-16T04:48:51;6.40;86.60
70366;DHT22;57787;48.216;12.396;2023-04-16T04:51:20;6.40;86.80
70366;DHT22;57787;48.216;12.396;2023-04-16T04:53:47;6.40;86.70
70366;DHT22;57787;48.216;12.396;2023-04-16T04:58:49;6.50;86.90
70366;DHT22;57787;48.216;12.396;2023-04-16T05:01:16;6.50;87.00
70366;DHT22;57787;48.216;12.396;2023-04-16T05:03:43;6.50;86.70
70366;DHT22;57787;48.216;12.396;2023-04-16T05:06:10;6.50;87.00
70366;DHT22;57787;48.216;12.396;2023-04-16T05:08:37;6.60;86.70
70366;DHT22;57787;48.216;12.396;2023-04-16T05:11:04;6.60;86.40
70366;DHT22;57787;48.216;12.396;2023-04-16T05:13:31;6.60;86.40
70366;DHT22;57787;48.216;12.396;2023-04-16T05:15:58;6.60;86.40
70366;DHT22;57787;48.216;12.396;2023-04-16T05:18:25;6.60;86.40
70366;DHT22;57787;48.216;12.396;2023-04-16T05:20:52;6.70;85.70
70366;DHT22;57787;48.216;12.396;2023-04-16T05:23:19;6.70;86.40
70366;DHT22;57787;48.216;12.396;2023-04-16T05:25:46;6.70;86.10
70366;DHT22;57787;48.216;12.396;2023-04-16T05:28:12;6.80;86.00
70366;DHT22;57787;48.216;12.396;2023-04-16T05:33:14;6.80;85.90
70366;DHT22;57787;48.216;12.396;2023-04-16T05:35:41;6.90;85.90
70366;DHT22;57787;48.216;12.396;2023-04-16T05:38:08;6.90;86.00
70366;DHT22;57787;48.216;12.396;2023-04-16T05:40:35;7.00;85.90
70366;DHT22;57787;48.216;12.396;2023-04-16T05:43:02;7.00;85.60
70366;DHT22;57787;48.216;12.396;2023-04-16T05:45:29;7.00;85.60
70366;DHT22;57787;48.216;12.396;2023-04-16T05:47:58;7.00;85.60
70366;DHT22;57787;48.216;12.396;2023-04-16T05:50:26;7.00;85.80
70366;DHT22;57787;48.216;12.396;2023-04-16T05:52:52;7.00;85.70
70366;DHT22;57787;48.216;12.396;2023-04-16T05:55:19;7.10;85.40
70366;DHT22;57787;48.216;12.396;2023-04-16T05:57:46;7.10;85.70
70366;DHT22;57787;48.216;12.396;2023-04-16T06:00:13;7.10;85.70
70366;DHT22;57787;48.216;12.396;2023-04-16T06:02:39;7.10;84.80
70366;DHT22;57787;48.216;12.396;2023-04-16T06:05:07;7.10;85.20
70366;DHT22;57787;48.216;12.396;2023-04-16T06:07:33;7.20;85.30
70366;DHT22;57787;48.216;12.396;2023-04-16T06:10:00;7.20;85.40
70366;DHT22;57787;48.216;12.396;2023-04-16T06:12:27;7.30;85.40
70366;DHT22;57787;48.216;12.396;2023-04-16T06:14:54;7.30;85.20
70366;DHT22;57787;48.216;12.396;2023-04-16T06:17:21;7.30;84.80
70366;DHT22;57787;48.216;12.396;2023-04-16T06:19:49;7.40;84.80
70366;DHT22;57787;48.216;12.396;2023-04-16T06:22:18;7.50;84.70
70366;DHT22;57787;48.216;12.396;2023-04-16T06:24:45;7.60;84.70
70366;DHT22;57787;48.216;12.396;2023-04-16T06:29:53;7.70;84.10
70366;DHT22;57787;48.216;12.396;2023-04-16T06:32:20;7.80;84.40
70366;DHT22;57787;48.216;12.396;2023-04-16T06:34:47;7.80;83.80
70366;DHT22;57787;48.216;12.396;2023-04-16T06:37:14;7.80;83.30
70366;DHT22;57787;48.216;12.396;2023-04-16T06:42:23;7.80;82.60
70366;DHT22;57787;48.216;12.396;2023-04-16T06:47:33;8.00;82.80
70366;DHT22;57787;48.216;12.396;2023-04-16T06:50:00;8.00;83.20
70366;DHT22;57787;48.216;12.396;2023-04-16T06:52:30;8.10;83.50
70366;DHT22;57787;48.216;12.396;2023-04-16T06:54:57;8.20;83.50
70366;DHT22;57787;48.216;12.396;2023-04-16T06:57:24;8.30;83.50
70366;DHT22;57787;48.216;12.396;2023-04-16T06:59:50;8.30;82.40
70366;DHT22;57787;48.216;12.396;2023-04-16T07:02:17;8.40;82.50
70366;DHT22;57787;48.216;12.396;2023-04-16T07:04:44;8.50;82.40
70366;DHT22;57787;48.216;12.396;2023-04-16T07:07:11;8.60;82.40
70366;DHT22;57787;48.216;12.396;2023-04-16T07:09:45;8.60;82.20
70366;DHT22;57787;48.216;12.396;2023-04-16T07:12:12;8.70;81.90
70366;DHT22;57787;48.216;12.396;2023-04-16T07:14:39;8.80;81.10
70366;DHT22;57787;48.216;12.396;2023-04-16T07:17:06;8.80;80.80
70366;DHT22;57787;48.216;12.396;2023-04-16T07:19:35;8.80;81.00
70366;DHT22;57787;48.216;12.396;2023-04-16T07:22:03;8.90;81.10
70366;DHT22;57787;48.216;12.396;2023-04-16T07:24:31;9.00;81.00
70366;DHT22;57787;48.216;12.396;2023-04-16T07:26:58;9.00;81.50
70366;DHT22;57787;48.216;12.396;2023-04-16T07:29:25;9.00;80.70
70366;DHT22;57787;48.216;12.396;2023-04-16T07:31:54;9.00;81.10
70366;DHT22;57787;48.216;12.396;2023-04-16T07:34:21;9.00;80.80
70366;DHT22;57787;48.216;12.396;2023-04-16T07:36:48;9.10;80.70
70366;DHT22;57787;48.216;12.396;2023-04-16T07:39:15;9.10;80.80
70366;DHT22;57787;48.216;12.396;2023-04-16T07:41:41;9.20;80.90
70366;DHT22;57787;48.216;12.396;2023-04-16T07:44:08;9.20;80.30
70366;DHT22;57787;48.216;12.396;2023-04-16T07:46:35;9.20;80.20
70366;DHT22;57787;48.216;12.396;2023-04-16T07:49:12;9.20;79.70
70366;DHT22;57787;48.216;12.396;2023-04-16T07:51:39;9.30;80.10
70366;DHT22;57787;48.216;12.396;2023-04-16T07:54:08;9.30;78.90
70366;DHT22;57787;48.216;12.396;2023-04-16T07:56:36;9.40;79.70
70366;DHT22;57787;48.216;12.396;2023-04-16T07:59:03;9.50;79.70
70366;DHT22;57787;48.216;12.396;2023-04-16T08:01:47;9.60;79.50
70366;DHT22;57787;48.216;12.396;2023-04-16T08:04:15;9.60;79.00
70366;DHT22;57787;48.216;12.396;2023-04-16T08:06:49;9.70;79.20
70366;DHT22;57787;48.216;12.396;2023-04-16T08:09:21;9.70;77.80
70366;DHT22;57787;48.216;12.396;2023-04-16T08:11:49;9.80;78.50
70366;DHT22;57787;48.216;12.396;2023-04-16T08:14:23;9.70;77.90
70366;DHT22;57787;48.216;12.396;2023-04-16T08:16:51;9.80;77.70
70366;DHT22;57787;48.216;12.396;2023-04-16T08:19:25;9.70;77.10
70366;DHT22;57787;48.216;12.396;2023-04-16T08:21:52;9.70;76.80
70366;DHT22;57787;48.216;12.396;2023-04-16T08:24:19;9.70;77.00
70366;DHT22;57787;48.216;12.396;2023-04-16T08:26:45;9.70;76.80
70366;DHT22;57787;48.216;12.396;2023-04-16T08:31:54;9.80;77.00
70366;DHT22;57787;48.216;12.396;2023-04-16T08:34:22;9.80;77.70
70366;DHT22;57787;48.216;12.396;2023-04-16T08:36:52;9.90;76.90
70366;DHT22;57787;48.216;12.396;2023-04-16T08:39:18;9.90;76.30
70366;DHT22;57787;48.216;12.396;2023-04-16T08:41:45;9.90;75.90
70366;DHT22;57787;48.216;12.396;2023-04-16T08:44:14;10.00;76.30
70366;DHT22;57787;48.216;12.396;2023-04-16T08:46:43;10.00;76.20
70366;DHT22;57787;48.216;12.396;2023-04-16T08:49:14;10.00;75.30
70366;DHT22;57787;48.216;12.396;2023-04-16T08:51:42;10.00;75.60
70366;DHT22;57787;48.216;12.396;2023-04-16T08:54:13;9.90;76.20
70366;DHT22;57787;48.216;12.396;2023-04-16T08:56:45;9.90;75.70
70366;DHT22;57787;48.216;12.396;2023-04-16T08:59:16;9.90;75.70
70366;DHT22;57787;48.216;12.396;2023-04-16T09:01:44;9.90;76.40
70366;DHT22;57787;48.216;12.396;2023-04-16T09:04:12;9.90;76.80
70366;DHT22;57787;48.216;12.396;2023-04-16T09:06:39;10.00;75.90
70366;DHT22;57787;48.216;12.396;2023-04-16T09:09:09;9.90;75.90
70366;DHT22;57787;48.216;12.396;2023-04-16T09:11:38;9.90;75.50
70366;DHT22;57787;48.216;12.396;2023-04-16T09:14:06;10.00;75.40
70366;DHT22;57787;48.216;12.396;2023-04-16T09:16:37;10.00;75.80
70366;DHT22;57787;48.216;12.396;2023-04-16T09:19:05;10.10;75.90
70366;DHT22;57787;48.216;12.396;2023-04-16T09:21:31;10.20;76.30
70366;DHT22;57787;48.216;12.396;2023-04-16T09:23:58;10.20;75.70
70366;DHT22;57787;48.216;12.396;2023-04-16T09:26:28;10.30;76.00
70366;DHT22;57787;48.216;12.396;2023-04-16T09:28:55;10.30;75.70
70366;DHT22;57787;48.216;12.396;2023-04-16T09:31:24;10.40;75.10
70366;DHT22;57787;48.216;12.396;2023-04-16T09:36:41;10.60;75.20
70366;DHT22;57787;48.216;12.396;2023-04-16T09:39:08;10.70;75.20
70366;DHT22;57787;48.216;12.396;2023-04-16T09:41:43;10.80;75.00
70366;DHT22;57787;48.216;12.396;2023-04-16T09:44:12;11.00;74.70
70366;DHT22;57787;48.216;12.396;2023-04-16T09:46:40;11.20;74.50
70366;DHT22;57787;48.216;12.396;2023-04-16T09:49:12;11.30;72.30
70366;DHT22;57787;48.216;12.396;2023-04-16T09:51:42;11.60;72.80
70366;DHT22;57787;48.216;12.396;2023-04-16T09:54:09;11.80;71.90
70366;DHT22;57787;48.216;12.396;2023-04-16T09:56:40;11.90;70.80
70366;DHT22;57787;48.216;12.396;2023-04-16T09:59:07;11.90;69.10
70366;DHT22;57787;48.216;12.396;2023-04-16T10:01:35;12.00;69.70
70366;DHT22;57787;48.216;12.396;2023-04-16T10:04:02;12.00;69.00
70366;DHT22;57787;48.216;12.396;2023-04-16T10:06:32;11.90;68.10
70366;DHT22;57787;48.216;12.396;2023-04-16T10:08:59;12.00;68.80
70366;DHT22;57787;48.216;12.396;2023-04-16T10:11:26;12.10;69.20
70366;DHT22;57787;48.216;12.396;2023-04-16T10:13:53;12.10;68.50
70366;DHT22;57787;48.216;12.396;2023-04-16T10:16:20;12.30;69.70
70366;DHT22;57787;48.216;12.396;2023-04-16T10:18:49;12.50;68.80
70366;DHT22;57787;48.216;12.396;2023-04-16T10:21:16;12.70;68.30
70366;DHT22;57787;48.216;12.396;2023-04-16T10:23:43;12.90;68.00
70366;DHT22;57787;48.216;12.396;2023-04-16T10:26:10;13.00;66.80
70366;DHT22;57787;48.216;12.396;2023-04-16T10:28:37;13.20;65.00
70366;DHT22;57787;48.216;12.396;2023-04-16T10:31:05;13.30;66.50
70366;DHT22;57787;48.216;12.396;2023-04-16T10:33:39;13.40;65.00
70366;DHT22;57787;48.216;12.396;2023-04-16T10:38:34;13.60;64.80
70366;DHT22;57787;48.216;12.396;2023-04-16T10:46:31;13.60;62.60
70366;DHT22;57787;48.216;12.396;2023-04-16T10:48:59;13.60;63.40
70366;DHT22;57787;48.216;12.396;2023-04-16T10:51:28;13.60;63.90
70366;DHT22;57787;48.216;12.396;2023-04-16T10:56:30;13.60;64.60
70366;DHT22;57787;48.216;12.396;2023-04-16T10:58:57;13.50;63.90
70366;DHT22;57787;48.216;12.396;2023-04-16T11:01:40;13.50;65.00
70366;DHT22;57787;48.216;12.396;2023-04-16T11:14:47;13.30;63.70
70366;DHT22;57787;48.216;12.396;2023-04-16T11:17:14;13.30;64.10
70366;DHT22;57787;48.216;12.396;2023-04-16T11:19:41;13.30;63.70
70366;DHT22;57787;48.216;12.396;2023-04-16T11:22:10;13.30;64.50
70366;DHT22;57787;48.216;12.396;2023-04-16T11:24:37;13.40;66.10
70366;DHT22;57787;48.216;12.396;2023-04-16T11:27:06;13.30;64.70
70366;DHT22;57787;48.216;12.396;2023-04-16T11:29:33;13.40;65.60
70366;DHT22;57787;48.216;12.396;2023-04-16T11:32:00;13.40;64.00
70366;DHT22;57787;48.216;12.396;2023-04-16T11:34:26;13.50;64.50
70366;DHT22;57787;48.216;12.396;2023-04-16T11:36:53;13.60;63.90
70366;DHT22;57787;48.216;12.396;2023-04-16T11:39:20;13.50;63.10
70366;DHT22;57787;48.216;12.396;2023-04-16T11:41:48;13.60;63.10
70366;DHT22;57787;48.216;12.396;2023-04-16T11:44:18;13.50;62.80
70366;DHT22;57787;48.216;12.396;2023-04-16T11:46:45;13.60;62.50
70366;DHT22;57787;48.216;12.396;2023-04-16T11:49:11;13.70;62.20
70366;DHT22;57787;48.216;12.396;2023-04-16T11:51:39;13.80;63.10
70366;DHT22;57787;48.216;12.396;2023-04-16T12:02:06;14.00;62.40
70366;DHT22;57787;48.216;12.396;2023-04-16T12:10:07;14.20;62.80
70366;DHT22;57787;48.216;12.396;2023-04-16T12:12:33;14.20;63.60
70366;DHT22;57787;48.216;12.396;2023-04-16T12:15:04;14.20;62.30
70366;DHT22;57787;48.216;12.396;2023-04-16T12:17:32;14.10;63.90
70366;DHT22;57787;48.216;12.396;2023-04-16T12:20:00;14.00;64.70
70366;DHT22;57787;48.216;12.396;2023-04-16T12:22:35;13.90;63.30
70366;DHT22;57787;48.216;12.396;2023-04-16T12:25:09;13.90;63.90
70366;DHT22;57787;48.216;12.396;2023-04-16T12:27:40;13.80;62.40
70366;DHT22;57787;48.216;12.396;2023-04-16T12:35:30;13.50;64.70
70366;DHT22;57787;48.216;12.396;2023-04-16T12:40:34;13.50;65.00
70366;DHT22;57787;48.216;12.396;2023-04-16T12:43:03;13.40;65.10
70366;DHT22;57787;48.216;12.396;2023-04-16T12:45:31;13.40;65.30
70366;DHT22;57787;48.216;12.396;2023-04-16T12:47:58;13.50;64.10
70366;DHT22;57787;48.216;12.396;2023-04-16T12:50:25;13.60;62.40
70366;DHT22;57787;48.216;12.396;2023-04-16T12:52:54;13.70;63.60
70366;DHT22;57787;48.216;12.396;2023-04-16T12:55:21;13.80;64.40
70366;DHT22;57787;48.216;12.396;2023-04-16T12:57:48;14.00;63.70
70366;DHT22;57787;48.216;12.396;2023-04-16T13:00:15;14.00;59.00
70366;DHT22;57787;48.216;12.396;2023-04-16T13:02:42;14.10;60.90
70366;DHT22;57787;48.216;12.396;2023-04-16T13:05:09;14.20;60.30
70366;DHT22;57787;48.216;12.396;2023-04-16T13:07:36;14.30;61.60
70366;DHT22;57787;48.216;12.396;2023-04-16T13:10:03;14.30;60.70
70366;DHT22;57787;48.216;12.396;2023-04-16T13:12:30;14.40;60.40
70366;DHT22;57787;48.216;12.396;2023-04-16T13:14:58;14.40;59.60
70366;DHT22;57787;48.216;12.396;2023-04-16T13:17:25;14.50;59.80
70366;DHT22;57787;48.216;12.396;2023-04-16T13:19:52;14.60;60.50
70366;DHT22;57787;48.216;12.396;2023-04-16T13:22:19;14.70;61.20
70366;DHT22;57787;48.216;12.396;2023-04-16T13:24:48;14.60;59.70
70366;DHT22;57787;48.216;12.396;2023-04-16T13:27:15;14.80;59.50
70366;DHT22;57787;48.216;12.396;2023-04-16T13:29:45;14.80;59.20
70366;DHT22;57787;48.216;12.396;2023-04-16T13:32:17;14.90;59.30
70366;DHT22;57787;48.216;12.396;2023-04-16T13:34:46;14.80;56.50
70366;DHT22;57787;48.216;12.396;2023-04-16T13:37:15;15.00;58.60
70366;DHT22;57787;48.216;12.396;2023-04-16T13:39:43;15.00;58.00
70366;DHT22;57787;48.216;12.396;2023-04-16T13:42:10;15.10;57.70
70366;DHT22;57787;48.216;12.396;2023-04-16T13:44:39;15.20;57.60
70366;DHT22;57787;48.216;12.396;2023-04-16T13:47:06;15.30;58.20
70366;DHT22;57787;48.216;12.396;2023-04-16T13:49:34;15.30;57.50
70366;DHT22;57787;48.216;12.396;2023-04-16T13:52:02;15.10;56.40
70366;DHT22;57787;48.216;12.396;2023-04-16T13:54:28;15.20;58.30
70366;DHT22;57787;48.216;12.396;2023-04-16T13:56:56;15.20;58.40
70366;DHT22;57787;48.216;12.396;2023-04-16T13:59:25;15.20;57.20
70366;DHT22;57787;48.216;12.396;2023-04-16T14:01:52;15.10;57.30
70366;DHT22;57787;48.216;12.396;2023-04-16T14:04:18;15.10;58.10
70366;DHT22;57787;48.216;12.396;2023-04-16T14:06:48;15.10;58.00
70366;DHT22;57787;48.216;12.396;2023-04-16T14:09:14;15.00;56.90
70366;DHT22;57787;48.216;12.396;2023-04-16T14:11:41;15.00;57.00
70366;DHT22;57787;48.216;12.396;2023-04-16T14:14:08;14.90;56.50
70366;DHT22;57787;48.216;12.396;2023-04-16T14:16:35;15.00;58.80
70366;DHT22;57787;48.216;12.396;2023-04-16T14:19:02;15.00;57.80
70366;DHT22;57787;48.216;12.396;2023-04-16T14:21:29;15.20;57.60
70366;DHT22;57787;48.216;12.396;2023-04-16T14:23:56;15.20;57.60
70366;DHT22;57787;48.216;12.396;2023-04-16T14:26:23;15.20;58.50
70366;DHT22;57787;48.216;12.396;2023-04-16T14:28:50;15.30;57.60
70366;DHT22;57787;48.216;12.396;2023-04-16T14:31:16;15.30;57.00
70366;DHT22;57787;48.216;12.396;2023-04-16T14:33:44;15.30;56.70
70366;DHT22;57787;48.216;12.396;2023-04-16T14:36:11;15.20;56.70
70366;DHT22;57787;48.216;12.396;2023-04-16T14:38:39;15.20;58.40
70366;DHT22;57787;48.216;12.396;2023-04-16T14:41:11;15.20;58.10
70366;DHT22;57787;48.216;12.396;2023-04-16T14:43:38;15.20;57.70
70366;DHT22;57787;48.216;12.396;2023-04-16T14:46:07;15.20;57.20
70366;DHT22;57787;48.216;12.396;2023-04-16T14:48:36;15.30;58.50
70366;DHT22;57787;48.216;12.396;2023-04-16T14:51:03;15.20;57.50
70366;DHT22;57787;48.216;12.396;2023-04-16T14:53:30;15.10;56.20
70366;DHT22;57787;48.216;12.396;2023-04-16T14:55:56;15.00;57.40
70366;DHT22;57787;48.216;12.396;2023-04-16T14:58:25;14.90;58.50
70366;DHT22;57787;48.216;12.396;2023-04-16T15:00:52;14.80;57.20
70366;DHT22;57787;48.216;12.396;2023-04-16T15:03:19;14.80;58.40
70366;DHT22;57787;48.216;12.396;2023-04-16T15:05:51;14.80;57.70
70366;DHT22;57787;48.216;12.396;2023-04-16T15:08:21;14.70;56.60
70366;DHT22;57787;48.216;12.396;2023-04-16T15:10:52;14.60;57.30
70366;DHT22;57787;48.216;12.396;2023-04-16T15:13:20;14.60;57.60
70366;DHT22;57787;48.216;12.396;2023-04-16T15:15:46;14.60;58.00
70366;DHT22;57787;48.216;12.396;2023-04-16T15:18:13;14.60;58.70
70366;DHT22;57787;48.216;12.396;2023-04-16T15:20:42;14.50;57.20
70366;DHT22;57787;48.216;12.396;2023-04-16T15:23:09;14.40;57.70
70366;DHT22;57787;48.216;12.396;2023-04-16T15:25:35;14.30;57.90
70366;DHT22;57787;48.216;12.396;2023-04-16T15:28:02;14.30;57.90
70366;DHT22;57787;48.216;12.396;2023-04-16T15:30:29;14.30;57.60
70366;DHT22;57787;48.216;12.396;2023-04-16T15:32:56;14.40;58.10
70366;DHT22;57787;48.216;12.396;2023-04-16T15:35:30;14.50;58.30
70366;DHT22;57787;48.216;12.396;2023-04-16T15:38:01;14.70;58.70
70366;DHT22;57787;48.216;12.396;2023-04-16T15:40:29;14.80;57.40
70366;DHT22;57787;48.216;12.396;2023-04-16T15:42:56;14.80;57.80
70366;DHT22;57787;48.216;12.396;2023-04-16T15:45:23;14.80;58.90
70366;DHT22;57787;48.216;12.396;2023-04-16T15:47:51;14.60;56.50
70366;DHT22;57787;48.216;12.396;2023-04-16T15:50:19;14.50;58.00
70366;DHT22;57787;48.216;12.396;2023-04-16T15:52:46;14.40;56.80
70366;DHT22;57787;48.216;12.396;2023-04-16T15:57:57;14.30;57.60
70366;DHT22;57787;48.216;12.396;2023-04-16T16:00:26;14.20;59.30
70366;DHT22;57787;48.216;12.396;2023-04-16T16:02:53;14.10;58.30
70366;DHT22;57787;48.216;12.396;2023-04-16T16:05:23;14.10;57.80
70366;DHT22;57787;48.216;12.396;2023-04-16T16:07:51;14.00;59.20
70366;DHT22;57787;48.216;12.396;2023-04-16T16:10:19;14.00;59.40
70366;DHT22;57787;48.216;12.396;2023-04-16T16:12:46;14.00;59.30
70366;DHT22;57787;48.216;12.396;2023-04-16T16:15:23;14.00;59.20
70366;DHT22;57787;48.216;12.396;2023-04-16T16:17:50;14.00;60.50
70366;DHT22;57787;48.216;12.396;2023-04-16T16:20:23;14.00;60.90
70366;DHT22;57787;48.216;12.396;2023-04-16T16:22:50;13.90;58.80
70366;DHT22;57787;48.216;12.396;2023-04-16T16:25:19;13.90;59.90
70366;DHT22;57787;48.216;12.396;2023-04-16T16:27:45;13.80;59.40
70366;DHT22;57787;48.216;12.396;2023-04-16T16:32:54;13.70;62.20
70366;DHT22;57787;48.216;12.396;2023-04-16T16:35:22;13.70;62.30
70366;DHT22;57787;48.216;12.396;2023-04-16T16:48:30;13.60;62.70
70366;DHT22;57787;48.216;12.396;2023-04-16T16:51:00;13.60;62.70